sensor_id;sensor_type;location;lat;lon;timestamp;P1;durP1;ratioP1;P2;durP2;ratioP2
36321;SDS011;23564;48.290;11.460;2023-11-21T00:00:23;9.18;;;1.40;;
36321;SDS011;23564;48.290;11.460;2023-11-21T00:02:49;10.32;;;1.25;;
36321;SDS011;23564;48.290;11.460;2023-11-21T00:05:15;6.63;;;1.45;;
36321;SDS011;23564;48.290;11.460;2023-11-21T00:07:41;7.68;;;1.70;;
36321;SDS011;23564;48.290;11.460;2023-11-21T00:10:07;6.03;;;1.17;;
36321;SDS011;23564;48.290;11.460;2023-11-21T00:12:33;4.57;;;1.00;;
36321;SDS011;23564;48.290;11.460;2023-11-21T00:14:59;8.10;;;1.58;;
36321;SDS011;23564;48.290;11.460;2023-11-21T00:17:26;5.70;;;1.17;;
36321;SDS011;23564;48.290;11.460;2023-11-21T00:19:52;6.45;;;1.40;;
36321;SDS011;23564;48.290;11.460;2023-11-21T00:22:18;8.25;;;1.02;;
36321;SDS011;23564;48.290;11.460;2023-11-21T00:24:43;6.80;;;1.50;;
36321;SDS011;23564;48.290;11.460;2023-11-21T00:27:09;3.28;;;1.13;;
36321;SDS011;23564;48.290;11.460;2023-11-21T00:29:35;3.85;;;0.85;;
36321;SDS011;23564;48.290;11.460;2023-11-21T00:32:00;6.20;;;1.48;;
36321;SDS011;23564;48.290;11.460;2023-11-21T00:34:26;12.70;;;1.20;;
36321;SDS011;23564;48.290;11.460;2023-11-21T00:36:52;6.63;;;1.17;;
36321;SDS011;23564;48.290;11.460;2023-11-21T00:39:17;6.43;;;0.90;;
36321;SDS011;23564;48.290;11.460;2023-11-21T00:41:43;2.13;;;0.90;;
36321;SDS011;23564;48.290;11.460;2023-11-21T00:44:10;4.32;;;0.88;;
36321;SDS011;23564;48.290;11.460;2023-11-21T00:46:35;4.63;;;0.95;;
36321;SDS011;23564;48.290;11.460;2023-11-21T00:49:01;5.57;;;1.15;;
36321;SDS011;23564;48.290;11.460;2023-11-21T00:51:29;3.17;;;0.90;;
36321;SDS011;23564;48.290;11.460;2023-11-21T00:53:55;4.95;;;0.65;;
36321;SDS011;23564;48.290;11.460;2023-11-21T00:56:20;4.90;;;1.23;;
36321;SDS011;23564;48.290;11.460;2023-11-21T00:58:46;4.63;;;0.80;;
36321;SDS011;23564;48.290;11.460;2023-11-21T01:01:14;3.50;;;0.93;;
36321;SDS011;23564;48.290;11.460;2023-11-21T01:03:40;4.07;;;1.05;;
36321;SDS011;23564;48.290;11.460;2023-11-21T01:06:06;4.75;;;0.82;;
36321;SDS011;23564;48.290;11.460;2023-11-21T01:08:33;5.82;;;1.00;;
36321;SDS011;23564;48.290;11.460;2023-11-21T01:10:58;1.85;;;0.63;;
36321;SDS011;23564;48.290;11.460;2023-11-21T01:13:24;3.20;;;1.00;;
36321;SDS011;23564;48.290;11.460;2023-11-21T01:15:54;3.40;;;0.90;;
36321;SDS011;23564;48.290;11.460;2023-11-21T01:18:20;4.25;;;0.70;;
36321;SDS011;23564;48.290;11.460;2023-11-21T01:20:46;5.35;;;0.60;;
36321;SDS011;23564;48.290;11.460;2023-11-21T01:23:12;6.18;;;0.80;;
36321;SDS011;23564;48.290;11.460;2023-11-21T01:25:38;9.95;;;0.93;;
36321;SDS011;23564;48.290;11.460;2023-11-21T01:28:04;4.53;;;0.63;;
36321;SDS011;23564;48.290;11.460;2023-11-21T01:30:30;4.90;;;1.25;;
36321;SDS011;23564;48.290;11.460;2023-11-21T01:32:57;3.65;;;0.90;;
36321;SDS011;23564;48.290;11.460;2023-11-21T01:35:23;4.13;;;0.80;;
36321;SDS011;23564;48.290;11.460;2023-11-21T01:37:48;4.20;;;0.88;;
36321;SDS011;23564;48.290;11.460;2023-11-21T01:40:14;7.18;;;0.85;;
36321;SDS011;23564;48.290;11.460;2023-11-21T01:42:40;3.45;;;1.20;;
36321;SDS011;23564;48.290;11.460;2023-11-21T01:45:08;4.50;;;1.02;;
36321;SDS011;23564;48.290;11.460;2023-11-21T01:47:34;3.42;;;0.65;;
36321;SDS011;23564;48.290;11.460;2023-11-21T01:50:01;3.92;;;0.65;;
36321;SDS011;23564;48.290;11.460;2023-11-21T01:52:29;3.88;;;1.45;;
36321;SDS011;23564;48.290;11.460;2023-11-21T01:54:55;2.78;;;0.90;;
36321;SDS011;23564;48.290;11.460;2023-11-21T01:57:22;1.52;;;0.50;;
36321;SDS011;23564;48.290;11.460;2023-11-21T01:59:48;5.47;;;0.80;;
36321;SDS011;23564;48.290;11.460;2023-11-21T02:02:15;2.65;;;0.90;;
36321;SDS011;23564;48.290;11.460;2023-11-21T02:04:40;3.78;;;0.75;;
36321;SDS011;23564;48.290;11.460;2023-11-21T02:07:06;3.72;;;1.13;;
36321;SDS011;23564;48.290;11.460;2023-11-21T02:09:32;4.43;;;0.90;;
36321;SDS011;23564;48.290;11.460;2023-11-21T02:12:03;9.98;;;1.20;;
36321;SDS011;23564;48.290;11.460;2023-11-21T02:14:29;1.88;;;0.80;;
36321;SDS011;23564;48.290;11.460;2023-11-21T02:16:55;5.05;;;0.90;;
36321;SDS011;23564;48.290;11.460;2023-11-21T02:19:22;2.25;;;0.63;;
36321;SDS011;23564;48.290;11.460;2023-11-21T02:21:53;11.43;;;2.72;;
36321;SDS011;23564;48.290;11.460;2023-11-21T02:24:21;2.58;;;0.90;;
36321;SDS011;23564;48.290;11.460;2023-11-21T02:26:50;2.33;;;0.80;;
36321;SDS011;23564;48.290;11.460;2023-11-21T02:29:20;3.95;;;0.70;;
36321;SDS011;23564;48.290;11.460;2023-11-21T02:31:53;5.28;;;1.05;;
36321;SDS011;23564;48.290;11.460;2023-11-21T02:34:19;4.45;;;1.08;;
36321;SDS011;23564;48.290;11.460;2023-11-21T02:36:46;3.65;;;0.77;;
36321;SDS011;23564;48.290;11.460;2023-11-21T02:39:15;2.92;;;0.93;;
36321;SDS011;23564;48.290;11.460;2023-11-21T02:41:41;7.47;;;1.27;;
36321;SDS011;23564;48.290;11.460;2023-11-21T02:44:07;3.17;;;0.90;;
36321;SDS011;23564;48.290;11.460;2023-11-21T02:46:33;5.22;;;1.02;;
36321;SDS011;23564;48.290;11.460;2023-11-21T02:49:03;3.00;;;1.42;;
36321;SDS011;23564;48.290;11.460;2023-11-21T02:51:31;4.27;;;0.80;;
36321;SDS011;23564;48.290;11.460;2023-11-21T02:53:57;7.82;;;0.68;;
36321;SDS011;23564;48.290;11.460;2023-11-21T02:56:26;6.88;;;1.00;;
36321;SDS011;23564;48.290;11.460;2023-11-21T02:58:52;5.60;;;0.98;;
36321;SDS011;23564;48.290;11.460;2023-11-21T03:01:20;5.63;;;1.08;;
36321;SDS011;23564;48.290;11.460;2023-11-21T03:03:45;7.68;;;1.20;;
36321;SDS011;23564;48.290;11.460;2023-11-21T03:06:16;5.55;;;0.57;;
36321;SDS011;23564;48.290;11.460;2023-11-21T03:08:44;2.30;;;0.70;;
36321;SDS011;23564;48.290;11.460;2023-11-21T03:11:10;5.30;;;1.23;;
36321;SDS011;23564;48.290;11.460;2023-11-21T03:13:38;4.40;;;0.93;;
36321;SDS011;23564;48.290;11.460;2023-11-21T03:16:08;4.05;;;0.95;;
36321;SDS011;23564;48.290;11.460;2023-11-21T03:18:34;4.00;;;0.80;;
36321;SDS011;23564;48.290;11.460;2023-11-21T03:20:59;6.22;;;1.10;;
36321;SDS011;23564;48.290;11.460;2023-11-21T03:23:25;3.13;;;0.77;;
36321;SDS011;23564;48.290;11.460;2023-11-21T03:25:51;6.40;;;1.10;;
36321;SDS011;23564;48.290;11.460;2023-11-21T03:28:16;8.23;;;1.10;;
36321;SDS011;23564;48.290;11.460;2023-11-21T03:30:42;4.82;;;0.95;;
36321;SDS011;23564;48.290;11.460;2023-11-21T03:33:07;4.60;;;0.65;;
36321;SDS011;23564;48.290;11.460;2023-11-21T03:35:33;3.08;;;0.77;;
36321;SDS011;23564;48.290;11.460;2023-11-21T03:37:58;4.15;;;1.00;;
36321;SDS011;23564;48.290;11.460;2023-11-21T03:40:24;2.70;;;0.70;;
36321;SDS011;23564;48.290;11.460;2023-11-21T03:42:49;4.25;;;0.68;;
36321;SDS011;23564;48.290;11.460;2023-11-21T03:45:15;3.92;;;0.75;;
36321;SDS011;23564;48.290;11.460;2023-11-21T03:47:41;1.42;;;0.60;;
36321;SDS011;23564;48.290;11.460;2023-11-21T03:50:07;4.85;;;0.88;;
36321;SDS011;23564;48.290;11.460;2023-11-21T03:52:34;4.72;;;1.08;;
36321;SDS011;23564;48.290;11.460;2023-11-21T03:55:00;3.22;;;0.68;;
36321;SDS011;23564;48.290;11.460;2023-11-21T03:57:26;4.00;;;0.60;;
36321;SDS011;23564;48.290;11.460;2023-11-21T03:59:52;5.20;;;0.95;;
36321;SDS011;23564;48.290;11.460;2023-11-21T04:02:19;2.95;;;0.70;;
36321;SDS011;23564;48.290;11.460;2023-11-21T04:04:44;3.05;;;0.77;;
36321;SDS011;23564;48.290;11.460;2023-11-21T04:07:10;5.75;;;1.00;;
36321;SDS011;23564;48.290;11.460;2023-11-21T04:09:36;7.68;;;1.10;;
36321;SDS011;23564;48.290;11.460;2023-11-21T04:12:02;3.88;;;0.90;;
36321;SDS011;23564;48.290;11.460;2023-11-21T04:14:27;6.70;;;1.25;;
36321;SDS011;23564;48.290;11.460;2023-11-21T04:16:53;9.90;;;1.02;;
36321;SDS011;23564;48.290;11.460;2023-11-21T04:19:19;9.13;;;1.40;;
36321;SDS011;23564;48.290;11.460;2023-11-21T04:21:45;4.72;;;1.80;;
36321;SDS011;23564;48.290;11.460;2023-11-21T04:24:11;6.03;;;0.90;;
36321;SDS011;23564;48.290;11.460;2023-11-21T04:26:36;8.27;;;0.90;;
36321;SDS011;23564;48.290;11.460;2023-11-21T04:29:02;3.83;;;0.88;;
36321;SDS011;23564;48.290;11.460;2023-11-21T04:31:29;7.18;;;1.50;;
36321;SDS011;23564;48.290;11.460;2023-11-21T04:33:55;5.53;;;1.38;;
36321;SDS011;23564;48.290;11.460;2023-11-21T04:36:21;8.40;;;1.70;;
36321;SDS011;23564;48.290;11.460;2023-11-21T04:38:46;3.97;;;0.77;;
36321;SDS011;23564;48.290;11.460;2023-11-21T04:41:12;4.95;;;1.63;;
36321;SDS011;23564;48.290;11.460;2023-11-21T04:43:38;5.03;;;1.20;;
36321;SDS011;23564;48.290;11.460;2023-11-21T04:46:03;5.20;;;1.10;;
36321;SDS011;23564;48.290;11.460;2023-11-21T04:48:29;4.78;;;0.90;;
36321;SDS011;23564;48.290;11.460;2023-11-21T04:50:54;4.90;;;0.75;;
36321;SDS011;23564;48.290;11.460;2023-11-21T04:53:20;6.40;;;0.75;;
36321;SDS011;23564;48.290;11.460;2023-11-21T04:55:45;4.20;;;1.10;;
36321;SDS011;23564;48.290;11.460;2023-11-21T04:58:11;3.83;;;0.90;;
36321;SDS011;23564;48.290;11.460;2023-11-21T05:00:37;3.08;;;0.68;;
36321;SDS011;23564;48.290;11.460;2023-11-21T05:03:03;8.63;;;1.33;;
36321;SDS011;23564;48.290;11.460;2023-11-21T05:05:30;2.65;;;0.60;;
36321;SDS011;23564;48.290;11.460;2023-11-21T05:07:56;6.43;;;0.82;;
36321;SDS011;23564;48.290;11.460;2023-11-21T05:10:21;9.02;;;0.93;;
36321;SDS011;23564;48.290;11.460;2023-11-21T05:12:47;4.85;;;0.85;;
36321;SDS011;23564;48.290;11.460;2023-11-21T05:15:15;2.05;;;0.70;;
36321;SDS011;23564;48.290;11.460;2023-11-21T05:17:42;1.75;;;0.63;;
36321;SDS011;23564;48.290;11.460;2023-11-21T05:20:14;2.70;;;0.82;;
36321;SDS011;23564;48.290;11.460;2023-11-21T05:22:46;1.30;;;0.70;;
36321;SDS011;23564;48.290;11.460;2023-11-21T05:25:13;2.90;;;0.47;;
36321;SDS011;23564;48.290;11.460;2023-11-21T05:27:39;3.13;;;0.88;;
36321;SDS011;23564;48.290;11.460;2023-11-21T05:30:05;1.70;;;0.60;;
36321;SDS011;23564;48.290;11.460;2023-11-21T05:32:32;3.08;;;0.68;;
36321;SDS011;23564;48.290;11.460;2023-11-21T05:34:57;4.18;;;0.70;;
36321;SDS011;23564;48.290;11.460;2023-11-21T05:37:24;2.63;;;0.98;;
36321;SDS011;23564;48.290;11.460;2023-11-21T05:39:51;5.47;;;0.73;;
36321;SDS011;23564;48.290;11.460;2023-11-21T05:42:17;2.35;;;0.70;;
36321;SDS011;23564;48.290;11.460;2023-11-21T05:44:43;5.53;;;0.70;;
36321;SDS011;23564;48.290;11.460;2023-11-21T05:47:09;3.33;;;0.98;;
36321;SDS011;23564;48.290;11.460;2023-11-21T05:49:35;2.08;;;0.70;;
36321;SDS011;23564;48.290;11.460;2023-11-21T05:52:01;2.65;;;0.90;;
36321;SDS011;23564;48.290;11.460;2023-11-21T05:54:27;4.00;;;1.10;;
36321;SDS011;23564;48.290;11.460;2023-11-21T05:56:53;1.63;;;0.70;;
36321;SDS011;23564;48.290;11.460;2023-11-21T05:59:19;2.75;;;0.55;;
36321;SDS011;23564;48.290;11.460;2023-11-21T06:01:45;3.03;;;0.70;;
36321;SDS011;23564;48.290;11.460;2023-11-21T06:04:11;3.72;;;0.90;;
36321;SDS011;23564;48.290;11.460;2023-11-21T06:06:37;3.22;;;0.60;;
36321;SDS011;23564;48.290;11.460;2023-11-21T06:09:03;3.65;;;0.70;;
36321;SDS011;23564;48.290;11.460;2023-11-21T06:11:30;2.25;;;0.82;;
36321;SDS011;23564;48.290;11.460;2023-11-21T06:13:56;0.95;;;0.50;;
36321;SDS011;23564;48.290;11.460;2023-11-21T06:16:23;1.50;;;0.57;;
36321;SDS011;23564;48.290;11.460;2023-11-21T06:18:49;2.13;;;0.50;;
36321;SDS011;23564;48.290;11.460;2023-11-21T06:21:15;6.13;;;0.80;;
36321;SDS011;23564;48.290;11.460;2023-11-21T06:23:41;4.28;;;0.63;;
36321;SDS011;23564;48.290;11.460;2023-11-21T06:26:07;1.38;;;0.60;;
36321;SDS011;23564;48.290;11.460;2023-11-21T06:28:34;0.70;;;0.50;;
36321;SDS011;23564;48.290;11.460;2023-11-21T06:31:01;1.77;;;0.45;;
36321;SDS011;23564;48.290;11.460;2023-11-21T06:33:31;1.27;;;0.35;;
36321;SDS011;23564;48.290;11.460;2023-11-21T06:35:57;0.90;;;0.57;;
36321;SDS011;23564;48.290;11.460;2023-11-21T06:38:23;1.58;;;0.30;;
36321;SDS011;23564;48.290;11.460;2023-11-21T06:40:48;1.13;;;0.50;;
36321;SDS011;23564;48.290;11.460;2023-11-21T06:43:14;1.63;;;0.90;;
36321;SDS011;23564;48.290;11.460;2023-11-21T06:45:40;2.10;;;0.70;;
36321;SDS011;23564;48.290;11.460;2023-11-21T06:48:05;2.47;;;0.73;;
36321;SDS011;23564;48.290;11.460;2023-11-21T06:50:31;1.23;;;0.47;;
36321;SDS011;23564;48.290;11.460;2023-11-21T06:52:56;2.03;;;0.50;;
36321;SDS011;23564;48.290;11.460;2023-11-21T06:55:22;2.47;;;0.30;;
36321;SDS011;23564;48.290;11.460;2023-11-21T06:57:48;2.22;;;0.50;;
36321;SDS011;23564;48.290;11.460;2023-11-21T07:00:15;0.88;;;0.50;;
36321;SDS011;23564;48.290;11.460;2023-11-21T07:02:43;2.50;;;0.57;;
36321;SDS011;23564;48.290;11.460;2023-11-21T07:05:08;1.73;;;0.40;;
36321;SDS011;23564;48.290;11.460;2023-11-21T07:07:34;0.88;;;0.40;;
36321;SDS011;23564;48.290;11.460;2023-11-21T07:10:02;3.20;;;0.50;;
36321;SDS011;23564;48.290;11.460;2023-11-21T07:12:28;3.60;;;0.95;;
36321;SDS011;23564;48.290;11.460;2023-11-21T07:14:57;1.15;;;0.60;;
36321;SDS011;23564;48.290;11.460;2023-11-21T07:17:23;3.28;;;0.52;;
36321;SDS011;23564;48.290;11.460;2023-11-21T07:19:49;0.55;;;0.45;;
36321;SDS011;23564;48.290;11.460;2023-11-21T07:22:15;1.15;;;0.60;;
36321;SDS011;23564;48.290;11.460;2023-11-21T07:24:47;5.43;;;0.77;;
36321;SDS011;23564;48.290;11.460;2023-11-21T07:27:14;2.17;;;0.77;;
36321;SDS011;23564;48.290;11.460;2023-11-21T07:29:40;0.95;;;0.50;;
36321;SDS011;23564;48.290;11.460;2023-11-21T07:32:06;2.92;;;0.60;;
36321;SDS011;23564;48.290;11.460;2023-11-21T07:34:34;1.08;;;0.30;;
36321;SDS011;23564;48.290;11.460;2023-11-21T07:36:59;0.98;;;0.60;;
36321;SDS011;23564;48.290;11.460;2023-11-21T07:39:25;4.15;;;0.77;;
36321;SDS011;23564;48.290;11.460;2023-11-21T07:41:52;0.55;;;0.40;;
36321;SDS011;23564;48.290;11.460;2023-11-21T07:44:17;2.53;;;0.65;;
36321;SDS011;23564;48.290;11.460;2023-11-21T07:46:44;1.23;;;0.40;;
36321;SDS011;23564;48.290;11.460;2023-11-21T07:49:10;1.42;;;0.50;;
36321;SDS011;23564;48.290;11.460;2023-11-21T07:51:36;4.13;;;0.68;;
36321;SDS011;23564;48.290;11.460;2023-11-21T07:54:02;0.55;;;0.50;;
36321;SDS011;23564;48.290;11.460;2023-11-21T07:56:27;3.08;;;0.63;;
36321;SDS011;23564;48.290;11.460;2023-11-21T07:58:53;2.60;;;0.47;;
36321;SDS011;23564;48.290;11.460;2023-11-21T08:01:19;0.85;;;0.32;;
36321;SDS011;23564;48.290;11.460;2023-11-21T08:03:44;2.70;;;0.50;;
36321;SDS011;23564;48.290;11.460;2023-11-21T08:06:10;3.50;;;0.60;;
36321;SDS011;23564;48.290;11.460;2023-11-21T08:08:37;2.53;;;0.63;;
36321;SDS011;23564;48.290;11.460;2023-11-21T08:11:02;1.63;;;0.60;;
36321;SDS011;23564;48.290;11.460;2023-11-21T08:13:29;2.08;;;0.52;;
36321;SDS011;23564;48.290;11.460;2023-11-21T08:15:57;1.80;;;0.75;;
36321;SDS011;23564;48.290;11.460;2023-11-21T08:18:27;2.55;;;0.65;;
36321;SDS011;23564;48.290;11.460;2023-11-21T08:20:53;1.42;;;0.30;;
36321;SDS011;23564;48.290;11.460;2023-11-21T08:23:20;2.25;;;0.60;;
36321;SDS011;23564;48.290;11.460;2023-11-21T08:25:45;1.55;;;1.00;;
36321;SDS011;23564;48.290;11.460;2023-11-21T08:28:12;1.30;;;0.63;;
36321;SDS011;23564;48.290;11.460;2023-11-21T08:30:39;3.92;;;0.70;;
36321;SDS011;23564;48.290;11.460;2023-11-21T08:33:06;3.22;;;0.65;;
36321;SDS011;23564;48.290;11.460;2023-11-21T08:35:33;1.92;;;0.65;;
36321;SDS011;23564;48.290;11.460;2023-11-21T08:37:59;3.67;;;0.80;;
36321;SDS011;23564;48.290;11.460;2023-11-21T08:40:25;1.48;;;0.65;;
36321;SDS011;23564;48.290;11.460;2023-11-21T08:42:50;3.78;;;0.63;;
36321;SDS011;23564;48.290;11.460;2023-11-21T08:45:17;1.58;;;0.80;;
36321;SDS011;23564;48.290;11.460;2023-11-21T08:47:44;2.47;;;0.80;;
36321;SDS011;23564;48.290;11.460;2023-11-21T08:50:10;2.13;;;0.68;;
36321;SDS011;23564;48.290;11.460;2023-11-21T08:52:37;3.10;;;0.70;;
36321;SDS011;23564;48.290;11.460;2023-11-21T08:55:04;1.52;;;0.70;;
36321;SDS011;23564;48.290;11.460;2023-11-21T08:57:33;2.60;;;0.82;;
36321;SDS011;23564;48.290;11.460;2023-11-21T09:00:05;2.78;;;0.80;;
36321;SDS011;23564;48.290;11.460;2023-11-21T09:02:33;3.13;;;0.50;;
36321;SDS011;23564;48.290;11.460;2023-11-21T09:05:02;3.35;;;0.70;;
36321;SDS011;23564;48.290;11.460;2023-11-21T09:07:31;4.05;;;0.63;;
36321;SDS011;23564;48.290;11.460;2023-11-21T09:09:57;2.55;;;0.93;;
36321;SDS011;23564;48.290;11.460;2023-11-21T09:12:22;1.75;;;0.68;;
36321;SDS011;23564;48.290;11.460;2023-11-21T09:14:49;1.77;;;0.85;;
36321;SDS011;23564;48.290;11.460;2023-11-21T09:17:15;2.08;;;0.80;;
36321;SDS011;23564;48.290;11.460;2023-11-21T09:19:41;3.30;;;0.70;;
36321;SDS011;23564;48.290;11.460;2023-11-21T09:22:10;4.22;;;0.60;;
36321;SDS011;23564;48.290;11.460;2023-11-21T09:24:35;3.80;;;0.77;;
36321;SDS011;23564;48.290;11.460;2023-11-21T09:27:02;4.78;;;0.80;;
36321;SDS011;23564;48.290;11.460;2023-11-21T09:29:28;3.55;;;0.60;;
36321;SDS011;23564;48.290;11.460;2023-11-21T09:31:54;3.35;;;0.70;;
36321;SDS011;23564;48.290;11.460;2023-11-21T09:34:20;4.45;;;0.50;;
36321;SDS011;23564;48.290;11.460;2023-11-21T09:36:47;0.93;;;0.52;;
36321;SDS011;23564;48.290;11.460;2023-11-21T09:39:13;3.03;;;0.63;;
36321;SDS011;23564;48.290;11.460;2023-11-21T09:44:13;3.03;;;0.90;;
36321;SDS011;23564;48.290;11.460;2023-11-21T09:46:42;1.48;;;0.70;;
36321;SDS011;23564;48.290;11.460;2023-11-21T09:49:11;2.33;;;1.10;;
36321;SDS011;23564;48.290;11.460;2023-11-21T09:51:44;2.33;;;0.88;;
36321;SDS011;23564;48.290;11.460;2023-11-21T09:54:13;3.22;;;0.70;;
36321;SDS011;23564;48.290;11.460;2023-11-21T09:56:41;4.07;;;1.00;;
36321;SDS011;23564;48.290;11.460;2023-11-21T09:59:07;2.33;;;1.10;;
36321;SDS011;23564;48.290;11.460;2023-11-21T10:01:38;2.90;;;0.88;;
36321;SDS011;23564;48.290;11.460;2023-11-21T10:04:05;2.60;;;0.85;;
36321;SDS011;23564;48.290;11.460;2023-11-21T10:06:36;5.15;;;1.00;;
36321;SDS011;23564;48.290;11.460;2023-11-21T10:09:07;2.60;;;0.90;;
36321;SDS011;23564;48.290;11.460;2023-11-21T10:11:39;3.90;;;0.90;;
36321;SDS011;23564;48.290;11.460;2023-11-21T10:14:06;1.20;;;0.60;;
36321;SDS011;23564;48.290;11.460;2023-11-21T10:16:35;6.70;;;1.52;;
36321;SDS011;23564;48.290;11.460;2023-11-21T10:19:03;1.17;;;0.60;;
36321;SDS011;23564;48.290;11.460;2023-11-21T10:21:32;1.30;;;0.73;;
36321;SDS011;23564;48.290;11.460;2023-11-21T10:23:58;2.95;;;0.70;;
36321;SDS011;23564;48.290;11.460;2023-11-21T10:26:23;2.92;;;0.95;;
36321;SDS011;23564;48.290;11.460;2023-11-21T10:28:55;1.75;;;0.60;;
36321;SDS011;23564;48.290;11.460;2023-11-21T10:31:22;1.75;;;0.82;;
36321;SDS011;23564;48.290;11.460;2023-11-21T10:33:51;3.10;;;0.93;;
36321;SDS011;23564;48.290;11.460;2023-11-21T10:36:27;4.65;;;0.70;;
36321;SDS011;23564;48.290;11.460;2023-11-21T10:38:53;4.20;;;0.82;;
36321;SDS011;23564;48.290;11.460;2023-11-21T10:41:19;4.20;;;1.20;;
36321;SDS011;23564;48.290;11.460;2023-11-21T10:43:46;2.03;;;0.57;;
36321;SDS011;23564;48.290;11.460;2023-11-21T10:46:11;8.50;;;2.65;;
36321;SDS011;23564;48.290;11.460;2023-11-21T10:48:39;2.08;;;1.02;;
36321;SDS011;23564;48.290;11.460;2023-11-21T10:51:09;5.80;;;1.33;;
36321;SDS011;23564;48.290;11.460;2023-11-21T10:53:41;4.82;;;1.33;;
36321;SDS011;23564;48.290;11.460;2023-11-21T10:58:33;3.03;;;1.20;;
36321;SDS011;23564;48.290;11.460;2023-11-21T11:01:01;3.63;;;1.48;;
36321;SDS011;23564;48.290;11.460;2023-11-21T11:03:31;7.97;;;2.10;;
36321;SDS011;23564;48.290;11.460;2023-11-21T11:05:58;2.28;;;0.82;;
36321;SDS011;23564;48.290;11.460;2023-11-21T11:08:25;9.18;;;3.33;;
36321;SDS011;23564;48.290;11.460;2023-11-21T11:10:52;2.75;;;0.90;;
36321;SDS011;23564;48.290;11.460;2023-11-21T11:13:18;10.60;;;3.80;;
36321;SDS011;23564;48.290;11.460;2023-11-21T11:15:47;2.78;;;1.90;;
36321;SDS011;23564;48.290;11.460;2023-11-21T11:18:13;1.63;;;1.02;;
36321;SDS011;23564;48.290;11.460;2023-11-21T11:20:40;4.32;;;1.80;;
36321;SDS011;23564;48.290;11.460;2023-11-21T11:28:55;2.83;;;0.90;;
36321;SDS011;23564;48.290;11.460;2023-11-21T11:37:00;4.03;;;1.42;;
36321;SDS011;23564;48.290;11.460;2023-11-21T11:39:39;1.45;;;0.98;;
36321;SDS011;23564;48.290;11.460;2023-11-21T11:42:07;2.67;;;1.25;;
36321;SDS011;23564;48.290;11.460;2023-11-21T11:47:21;3.35;;;0.70;;
36321;SDS011;23564;48.290;11.460;2023-11-21T11:52:47;2.92;;;1.58;;
36321;SDS011;23564;48.290;11.460;2023-11-21T11:55:16;2.75;;;0.90;;
36321;SDS011;23564;48.290;11.460;2023-11-21T11:57:43;2.08;;;0.70;;
36321;SDS011;23564;48.290;11.460;2023-11-21T12:00:17;1.63;;;1.20;;
36321;SDS011;23564;48.290;11.460;2023-11-21T12:02:51;4.50;;;1.65;;
36321;SDS011;23564;48.290;11.460;2023-11-21T12:05:19;4.50;;;2.67;;
36321;SDS011;23564;48.290;11.460;2023-11-21T12:07:52;2.63;;;1.00;;
36321;SDS011;23564;48.290;11.460;2023-11-21T12:10:22;2.30;;;0.82;;
36321;SDS011;23564;48.290;11.460;2023-11-21T12:12:50;5.63;;;2.10;;
36321;SDS011;23564;48.290;11.460;2023-11-21T12:15:23;4.50;;;2.03;;
36321;SDS011;23564;48.290;11.460;2023-11-21T12:17:50;1.15;;;0.80;;
36321;SDS011;23564;48.290;11.460;2023-11-21T12:20:23;2.50;;;0.90;;
36321;SDS011;23564;48.290;11.460;2023-11-21T12:22:50;1.25;;;0.55;;
36321;SDS011;23564;48.290;11.460;2023-11-21T12:25:17;1.33;;;0.90;;
36321;SDS011;23564;48.290;11.460;2023-11-21T12:27:48;3.65;;;1.00;;
36321;SDS011;23564;48.290;11.460;2023-11-21T12:30:15;5.90;;;1.00;;
36321;SDS011;23564;48.290;11.460;2023-11-21T12:32:42;2.60;;;0.50;;
36321;SDS011;23564;48.290;11.460;2023-11-21T12:35:11;0.47;;;0.40;;
36321;SDS011;23564;48.290;11.460;2023-11-21T12:37:37;1.05;;;0.55;;
36321;SDS011;23564;48.290;11.460;2023-11-21T12:40:05;2.83;;;0.55;;
36321;SDS011;23564;48.290;11.460;2023-11-21T12:42:37;5.03;;;0.65;;
36321;SDS011;23564;48.290;11.460;2023-11-21T12:47:50;4.00;;;1.00;;
36321;SDS011;23564;48.290;11.460;2023-11-21T12:50:20;1.40;;;0.60;;
36321;SDS011;23564;48.290;11.460;2023-11-21T12:52:48;1.23;;;0.30;;
36321;SDS011;23564;48.290;11.460;2023-11-21T12:55:21;1.05;;;0.60;;
36321;SDS011;23564;48.290;11.460;2023-11-21T12:57:48;1.88;;;0.70;;
36321;SDS011;23564;48.290;11.460;2023-11-21T13:00:19;0.77;;;0.45;;
36321;SDS011;23564;48.290;11.460;2023-11-21T13:02:56;2.30;;;0.40;;
36321;SDS011;23564;48.290;11.460;2023-11-21T13:05:26;0.40;;;0.30;;
36321;SDS011;23564;48.290;11.460;2023-11-21T13:07:53;1.58;;;0.50;;
36321;SDS011;23564;48.290;11.460;2023-11-21T13:10:23;1.02;;;0.40;;
36321;SDS011;23564;48.290;11.460;2023-11-21T13:12:52;2.03;;;0.50;;
36321;SDS011;23564;48.290;11.460;2023-11-21T13:15:18;0.55;;;0.40;;
36321;SDS011;23564;48.290;11.460;2023-11-21T13:17:44;1.90;;;0.70;;
36321;SDS011;23564;48.290;11.460;2023-11-21T13:20:10;2.30;;;0.50;;
36321;SDS011;23564;48.290;11.460;2023-11-21T13:22:44;0.47;;;0.40;;
36321;SDS011;23564;48.290;11.460;2023-11-21T13:25:24;1.17;;;0.60;;
36321;SDS011;23564;48.290;11.460;2023-11-21T13:27:59;4.38;;;0.95;;
36321;SDS011;23564;48.290;11.460;2023-11-21T13:30:28;1.83;;;0.90;;
36321;SDS011;23564;48.290;11.460;2023-11-21T13:33:05;1.92;;;0.95;;
36321;SDS011;23564;48.290;11.460;2023-11-21T13:35:33;2.40;;;1.25;;
36321;SDS011;23564;48.290;11.460;2023-11-21T13:38:06;1.88;;;1.02;;
36321;SDS011;23564;48.290;11.460;2023-11-21T13:40:33;2.72;;;0.80;;
36321;SDS011;23564;48.290;11.460;2023-11-21T13:43:05;3.07;;;0.83;;
36321;SDS011;23564;48.290;11.460;2023-11-21T13:45:34;2.17;;;0.57;;
36321;SDS011;23564;48.290;11.460;2023-11-21T13:48:00;2.65;;;0.65;;
36321;SDS011;23564;48.290;11.460;2023-11-21T13:50:26;1.52;;;0.50;;
36321;SDS011;23564;48.290;11.460;2023-11-21T13:52:58;0.93;;;0.70;;
36321;SDS011;23564;48.290;11.460;2023-11-21T13:55:28;3.08;;;0.60;;
36321;SDS011;23564;48.290;11.460;2023-11-21T13:57:53;1.20;;;0.60;;
36321;SDS011;23564;48.290;11.460;2023-11-21T14:00:19;1.65;;;0.90;;
36321;SDS011;23564;48.290;11.460;2023-11-21T14:03:03;2.25;;;0.80;;
36321;SDS011;23564;48.290;11.460;2023-11-21T14:05:33;3.53;;;0.88;;
36321;SDS011;23564;48.290;11.460;2023-11-21T14:08:02;3.00;;;0.70;;
36321;SDS011;23564;48.290;11.460;2023-11-21T14:10:30;3.80;;;1.00;;
36321;SDS011;23564;48.290;11.460;2023-11-21T14:13:08;2.45;;;1.10;;
36321;SDS011;23564;48.290;11.460;2023-11-21T14:15:38;4.20;;;0.82;;
36321;SDS011;23564;48.290;11.460;2023-11-21T14:18:08;2.22;;;1.10;;
36321;SDS011;23564;48.290;11.460;2023-11-21T14:20:35;1.92;;;1.10;;
36321;SDS011;23564;48.290;11.460;2023-11-21T14:23:02;3.80;;;1.27;;
36321;SDS011;23564;48.290;11.460;2023-11-21T14:25:31;1.63;;;0.80;;
36321;SDS011;23564;48.290;11.460;2023-11-21T14:27:57;2.63;;;1.40;;
36321;SDS011;23564;48.290;11.460;2023-11-21T14:30:23;8.85;;;2.20;;
36321;SDS011;23564;48.290;11.460;2023-11-21T14:32:50;6.25;;;1.95;;
36321;SDS011;23564;48.290;11.460;2023-11-21T14:35:16;4.80;;;2.25;;
36321;SDS011;23564;48.290;11.460;2023-11-21T14:37:42;8.35;;;3.70;;
36321;SDS011;23564;48.290;11.460;2023-11-21T14:40:08;12.90;;;4.45;;
36321;SDS011;23564;48.290;11.460;2023-11-21T14:42:34;12.40;;;4.35;;
36321;SDS011;23564;48.290;11.460;2023-11-21T14:45:03;12.10;;;3.90;;
36321;SDS011;23564;48.290;11.460;2023-11-21T14:47:32;9.68;;;3.78;;
36321;SDS011;23564;48.290;11.460;2023-11-21T14:49:59;9.65;;;3.40;;
36321;SDS011;23564;48.290;11.460;2023-11-21T14:52:49;6.50;;;2.72;;
36321;SDS011;23564;48.290;11.460;2023-11-21T14:55:24;3.88;;;2.25;;
36321;SDS011;23564;48.290;11.460;2023-11-21T14:58:09;8.75;;;3.25;;